sensor_id;sensor_type;location;lat;lon;timestamp;P1;durP1;ratioP1;P2;durP2;ratioP2
41059;SDS011;26811;53.160;8.202;2023-07-24T00:04:52;52.03;;;16.80;;
41059;SDS011;26811;53.160;8.202;2023-07-24T00:09:52;46.42;;;16.58;;
41059;SDS011;26811;53.160;8.202;2023-07-24T00:14:55;49.60;;;16.80;;
41059;SDS011;26811;53.160;8.202;2023-07-24T00:19:55;47.22;;;17.20;;
41059;SDS011;26811;53.160;8.202;2023-07-24T00:24:56;53.22;;;16.52;;
41059;SDS011;26811;53.160;8.202;2023-07-24T00:29:56;50.70;;;16.20;;
41059;SDS011;26811;53.160;8.202;2023-07-24T00:34:57;54.83;;;15.88;;
41059;SDS011;26811;53.160;8.202;2023-07-24T00:39:57;40.92;;;15.40;;
41059;SDS011;26811;53.160;8.202;2023-07-24T00:44:58;45.42;;;16.08;;
41059;SDS011;26811;53.160;8.202;2023-07-24T00:49:58;44.88;;;15.32;;
41059;SDS011;26811;53.160;8.202;2023-07-24T00:54:59;41.90;;;14.95;;
41059;SDS011;26811;53.160;8.202;2023-07-24T01:00:00;49.72;;;15.02;;
41059;SDS011;26811;53.160;8.202;2023-07-24T01:05:01;44.58;;;15.85;;
41059;SDS011;26811;53.160;8.202;2023-07-24T01:10:01;50.88;;;16.55;;
41059;SDS011;26811;53.160;8.202;2023-07-24T01:20:26;42.83;;;13.85;;
41059;SDS011;26811;53.160;8.202;2023-07-24T01:25:32;44.17;;;14.35;;
41059;SDS011;26811;53.160;8.202;2023-07-24T01:30:37;52.70;;;15.82;;
41059;SDS011;26811;53.160;8.202;2023-07-24T01:35:37;40.45;;;14.68;;
41059;SDS011;26811;53.160;8.202;2023-07-24T01:40:42;47.35;;;16.38;;
41059;SDS011;26811;53.160;8.202;2023-07-24T01:45:43;41.42;;;15.70;;
41059;SDS011;26811;53.160;8.202;2023-07-24T01:50:43;60.92;;;16.70;;
41059;SDS011;26811;53.160;8.202;2023-07-24T01:55:44;45.58;;;15.90;;
41059;SDS011;26811;53.160;8.202;2023-07-24T02:00:44;43.95;;;15.65;;
41059;SDS011;26811;53.160;8.202;2023-07-24T02:05:48;48.47;;;16.55;;
41059;SDS011;26811;53.160;8.202;2023-07-24T02:10:50;40.45;;;14.10;;
41059;SDS011;26811;53.160;8.202;2023-07-24T02:15:51;47.53;;;16.05;;
41059;SDS011;26811;53.160;8.202;2023-07-24T02:20:53;53.35;;;16.15;;
41059;SDS011;26811;53.160;8.202;2023-07-24T02:25:54;44.30;;;16.35;;
41059;SDS011;26811;53.160;8.202;2023-07-24T02:30:54;46.25;;;16.40;;
41059;SDS011;26811;53.160;8.202;2023-07-24T02:36:00;48.63;;;17.27;;
41059;SDS011;26811;53.160;8.202;2023-07-24T02:41:01;42.95;;;15.27;;
41059;SDS011;26811;53.160;8.202;2023-07-24T02:46:02;50.65;;;16.10;;
41059;SDS011;26811;53.160;8.202;2023-07-24T02:51:03;48.65;;;16.45;;
41059;SDS011;26811;53.160;8.202;2023-07-24T02:56:03;47.42;;;16.92;;
41059;SDS011;26811;53.160;8.202;2023-07-24T03:01:04;56.53;;;17.55;;
41059;SDS011;26811;53.160;8.202;2023-07-24T03:06:06;44.95;;;16.27;;
41059;SDS011;26811;53.160;8.202;2023-07-24T03:11:07;45.00;;;15.85;;
41059;SDS011;26811;53.160;8.202;2023-07-24T03:16:07;54.20;;;16.77;;
41059;SDS011;26811;53.160;8.202;2023-07-24T03:21:08;49.45;;;17.00;;
41059;SDS011;26811;53.160;8.202;2023-07-24T03:26:09;50.03;;;18.13;;
41059;SDS011;26811;53.160;8.202;2023-07-24T03:31:09;50.75;;;15.98;;
41059;SDS011;26811;53.160;8.202;2023-07-24T03:36:10;48.42;;;17.10;;
41059;SDS011;26811;53.160;8.202;2023-07-24T03:41:10;48.83;;;16.73;;
41059;SDS011;26811;53.160;8.202;2023-07-24T03:46:11;58.33;;;17.65;;
41059;SDS011;26811;53.160;8.202;2023-07-24T03:51:11;56.45;;;17.65;;
41059;SDS011;26811;53.160;8.202;2023-07-24T03:56:12;46.47;;;16.77;;
41059;SDS011;26811;53.160;8.202;2023-07-24T04:01:13;47.10;;;15.45;;
41059;SDS011;26811;53.160;8.202;2023-07-24T04:06:13;52.40;;;17.08;;
41059;SDS011;26811;53.160;8.202;2023-07-24T04:11:14;47.35;;;16.80;;
41059;SDS011;26811;53.160;8.202;2023-07-24T04:16:14;52.78;;;17.05;;
41059;SDS011;26811;53.160;8.202;2023-07-24T04:21:15;47.22;;;15.43;;
41059;SDS011;26811;53.160;8.202;2023-07-24T04:26:15;43.65;;;14.93;;
41059;SDS011;26811;53.160;8.202;2023-07-24T04:31:16;43.58;;;15.30;;
41059;SDS011;26811;53.160;8.202;2023-07-24T04:36:16;45.22;;;15.07;;
41059;SDS011;26811;53.160;8.202;2023-07-24T04:41:17;46.33;;;14.38;;
41059;SDS011;26811;53.160;8.202;2023-07-24T04:46:17;46.35;;;16.33;;
41059;SDS011;26811;53.160;8.202;2023-07-24T04:51:18;55.03;;;16.42;;
41059;SDS011;26811;53.160;8.202;2023-07-24T04:56:19;43.13;;;16.33;;
41059;SDS011;26811;53.160;8.202;2023-07-24T05:01:19;48.38;;;16.13;;
41059;SDS011;26811;53.160;8.202;2023-07-24T05:06:20;45.85;;;16.30;;
41059;SDS011;26811;53.160;8.202;2023-07-24T05:11:20;46.95;;;15.48;;
41059;SDS011;26811;53.160;8.202;2023-07-24T05:16:21;42.10;;;15.63;;
41059;SDS011;26811;53.160;8.202;2023-07-24T05:21:21;43.95;;;16.20;;
41059;SDS011;26811;53.160;8.202;2023-07-24T05:26:22;38.63;;;15.70;;
41059;SDS011;26811;53.160;8.202;2023-07-24T05:31:22;45.83;;;15.57;;
41059;SDS011;26811;53.160;8.202;2023-07-24T05:36:23;42.42;;;15.75;;
41059;SDS011;26811;53.160;8.202;2023-07-24T05:41:23;39.67;;;14.55;;
41059;SDS011;26811;53.160;8.202;2023-07-24T05:46:24;39.30;;;14.60;;
41059;SDS011;26811;53.160;8.202;2023-07-24T05:51:24;40.40;;;14.18;;
41059;SDS011;26811;53.160;8.202;2023-07-24T05:56:25;36.42;;;13.82;;
41059;SDS011;26811;53.160;8.202;2023-07-24T06:01:25;39.13;;;14.52;;
41059;SDS011;26811;53.160;8.202;2023-07-24T06:06:26;42.28;;;15.48;;
41059;SDS011;26811;53.160;8.202;2023-07-24T06:11:28;41.10;;;15.60;;
41059;SDS011;26811;53.160;8.202;2023-07-24T06:16:28;39.33;;;15.27;;
41059;SDS011;26811;53.160;8.202;2023-07-24T06:21:29;37.22;;;14.70;;
41059;SDS011;26811;53.160;8.202;2023-07-24T06:26:30;40.00;;;14.93;;
41059;SDS011;26811;53.160;8.202;2023-07-24T06:31:31;40.33;;;15.40;;
41059;SDS011;26811;53.160;8.202;2023-07-24T06:36:31;37.00;;;15.30;;
41059;SDS011;26811;53.160;8.202;2023-07-24T06:41:32;40.78;;;15.45;;
41059;SDS011;26811;53.160;8.202;2023-07-24T06:46:32;46.80;;;16.77;;
41059;SDS011;26811;53.160;8.202;2023-07-24T06:51:33;41.05;;;16.20;;
41059;SDS011;26811;53.160;8.202;2023-07-24T06:56:33;47.95;;;16.33;;
41059;SDS011;26811;53.160;8.202;2023-07-24T07:01:34;44.00;;;16.40;;
41059;SDS011;26811;53.160;8.202;2023-07-24T07:06:40;46.03;;;17.63;;
41059;SDS011;26811;53.160;8.202;2023-07-24T07:12:02;47.20;;;17.10;;
41059;SDS011;26811;53.160;8.202;2023-07-24T07:17:05;47.42;;;18.60;;
41059;SDS011;26811;53.160;8.202;2023-07-24T07:22:06;47.08;;;19.00;;
41059;SDS011;26811;53.160;8.202;2023-07-24T07:27:06;50.75;;;19.52;;
41059;SDS011;26811;53.160;8.202;2023-07-24T07:32:07;44.42;;;18.05;;
41059;SDS011;26811;53.160;8.202;2023-07-24T07:37:11;49.83;;;19.80;;
41059;SDS011;26811;53.160;8.202;2023-07-24T07:42:12;47.67;;;18.95;;
41059;SDS011;26811;53.160;8.202;2023-07-24T07:47:12;49.58;;;18.60;;
41059;SDS011;26811;53.160;8.202;2023-07-24T07:52:13;43.00;;;18.40;;
41059;SDS011;26811;53.160;8.202;2023-07-24T07:57:17;46.00;;;19.70;;
41059;SDS011;26811;53.160;8.202;2023-07-24T08:02:17;46.08;;;19.00;;
41059;SDS011;26811;53.160;8.202;2023-07-24T08:07:18;46.13;;;19.52;;
41059;SDS011;26811;53.160;8.202;2023-07-24T08:12:18;47.50;;;19.70;;
41059;SDS011;26811;53.160;8.202;2023-07-24T08:17:19;45.50;;;20.58;;
41059;SDS011;26811;53.160;8.202;2023-07-24T08:22:19;50.75;;;21.80;;
41059;SDS011;26811;53.160;8.202;2023-07-24T08:27:22;46.05;;;21.17;;
41059;SDS011;26811;53.160;8.202;2023-07-24T08:32:23;57.85;;;22.42;;
41059;SDS011;26811;53.160;8.202;2023-07-24T08:37:23;58.95;;;23.92;;
41059;SDS011;26811;53.160;8.202;2023-07-24T08:42:24;47.47;;;22.00;;
41059;SDS011;26811;53.160;8.202;2023-07-24T08:47:25;50.42;;;22.35;;
41059;SDS011;26811;53.160;8.202;2023-07-24T08:52:25;49.38;;;22.20;;
41059;SDS011;26811;53.160;8.202;2023-07-24T08:57:26;45.60;;;22.30;;
41059;SDS011;26811;53.160;8.202;2023-07-24T09:02:26;53.80;;;23.48;;
41059;SDS011;26811;53.160;8.202;2023-07-24T09:07:27;59.78;;;24.17;;
41059;SDS011;26811;53.160;8.202;2023-07-24T09:12:29;58.58;;;24.02;;
41059;SDS011;26811;53.160;8.202;2023-07-24T09:17:29;59.10;;;24.13;;
41059;SDS011;26811;53.160;8.202;2023-07-24T09:22:30;49.38;;;22.60;;
41059;SDS011;26811;53.160;8.202;2023-07-24T09:27:30;47.17;;;21.75;;
41059;SDS011;26811;53.160;8.202;2023-07-24T09:32:31;51.22;;;22.25;;
41059;SDS011;26811;53.160;8.202;2023-07-24T09:37:33;46.78;;;21.92;;
41059;SDS011;26811;53.160;8.202;2023-07-24T09:42:34;51.70;;;20.33;;
41059;SDS011;26811;53.160;8.202;2023-07-24T09:47:38;41.28;;;19.27;;
41059;SDS011;26811;53.160;8.202;2023-07-24T09:52:40;40.38;;;17.90;;
41059;SDS011;26811;53.160;8.202;2023-07-24T09:57:43;37.50;;;17.05;;
41059;SDS011;26811;53.160;8.202;2023-07-24T10:02:45;40.55;;;17.52;;
41059;SDS011;26811;53.160;8.202;2023-07-24T10:07:46;43.25;;;16.38;;
41059;SDS011;26811;53.160;8.202;2023-07-24T10:12:47;34.70;;;16.02;;
41059;SDS011;26811;53.160;8.202;2023-07-24T10:17:49;46.55;;;16.60;;
41059;SDS011;26811;53.160;8.202;2023-07-24T10:22:49;33.88;;;15.43;;
41059;SDS011;26811;53.160;8.202;2023-07-24T10:27:50;36.42;;;16.05;;
41059;SDS011;26811;53.160;8.202;2023-07-24T10:32:52;31.08;;;15.57;;
41059;SDS011;26811;53.160;8.202;2023-07-24T10:37:59;36.03;;;15.43;;
41059;SDS011;26811;53.160;8.202;2023-07-24T10:43:05;33.33;;;15.48;;
41059;SDS011;26811;53.160;8.202;2023-07-24T10:48:07;30.30;;;13.75;;
41059;SDS011;26811;53.160;8.202;2023-07-24T10:53:13;32.55;;;15.50;;
41059;SDS011;26811;53.160;8.202;2023-07-24T10:58:16;33.10;;;14.70;;
41059;SDS011;26811;53.160;8.202;2023-07-24T11:03:16;42.22;;;16.77;;
41059;SDS011;26811;53.160;8.202;2023-07-24T11:08:18;31.70;;;14.32;;
41059;SDS011;26811;53.160;8.202;2023-07-24T11:13:21;32.55;;;14.85;;
41059;SDS011;26811;53.160;8.202;2023-07-24T11:18:23;37.53;;;15.48;;
41059;SDS011;26811;53.160;8.202;2023-07-24T11:23:26;38.92;;;15.43;;
41059;SDS011;26811;53.160;8.202;2023-07-24T11:28:27;32.65;;;15.77;;
41059;SDS011;26811;53.160;8.202;2023-07-24T11:33:28;37.93;;;16.30;;
41059;SDS011;26811;53.160;8.202;2023-07-24T11:38:29;38.90;;;14.97;;
41059;SDS011;26811;53.160;8.202;2023-07-24T11:43:29;34.43;;;13.47;;
41059;SDS011;26811;53.160;8.202;2023-07-24T11:48:30;33.20;;;14.83;;
41059;SDS011;26811;53.160;8.202;2023-07-24T11:53:31;32.63;;;14.73;;
41059;SDS011;26811;53.160;8.202;2023-07-24T11:58:31;38.40;;;17.17;;
41059;SDS011;26811;53.160;8.202;2023-07-24T12:03:32;44.57;;;17.03;;
41059;SDS011;26811;53.160;8.202;2023-07-24T12:08:33;45.43;;;17.30;;
41059;SDS011;26811;53.160;8.202;2023-07-24T12:13:35;40.78;;;16.92;;
41059;SDS011;26811;53.160;8.202;2023-07-24T12:18:35;40.97;;;16.43;;
41059;SDS011;26811;53.160;8.202;2023-07-24T12:23:36;41.13;;;16.90;;
41059;SDS011;26811;53.160;8.202;2023-07-24T12:28:36;38.38;;;16.27;;
41059;SDS011;26811;53.160;8.202;2023-07-24T12:33:37;46.73;;;17.47;;
41059;SDS011;26811;53.160;8.202;2023-07-24T12:38:37;38.73;;;16.47;;
41059;SDS011;26811;53.160;8.202;2023-07-24T12:43:38;43.53;;;16.63;;
41059;SDS011;26811;53.160;8.202;2023-07-24T12:48:38;38.33;;;16.17;;
41059;SDS011;26811;53.160;8.202;2023-07-24T12:53:39;40.50;;;16.10;;
41059;SDS011;26811;53.160;8.202;2023-07-24T12:58:39;39.73;;;16.83;;
41059;SDS011;26811;53.160;8.202;2023-07-24T13:03:40;40.25;;;15.95;;
41059;SDS011;26811;53.160;8.202;2023-07-24T13:08:47;41.22;;;16.48;;
41059;SDS011;26811;53.160;8.202;2023-07-24T13:13:48;49.13;;;16.90;;
41059;SDS011;26811;53.160;8.202;2023-07-24T13:18:50;52.15;;;17.35;;
41059;SDS011;26811;53.160;8.202;2023-07-24T13:23:50;44.93;;;17.17;;
41059;SDS011;26811;53.160;8.202;2023-07-24T13:28:51;53.83;;;18.65;;
41059;SDS011;26811;53.160;8.202;2023-07-24T13:33:52;49.42;;;18.00;;
41059;SDS011;26811;53.160;8.202;2023-07-24T13:38:52;54.67;;;19.20;;
41059;SDS011;26811;53.160;8.202;2023-07-24T13:43:53;52.15;;;19.73;;
41059;SDS011;26811;53.160;8.202;2023-07-24T13:48:53;46.75;;;20.00;;
41059;SDS011;26811;53.160;8.202;2023-07-24T13:53:54;49.15;;;18.70;;
41059;SDS011;26811;53.160;8.202;2023-07-24T13:58:54;90.20;;;24.95;;
41059;SDS011;26811;53.160;8.202;2023-07-24T14:03:55;58.72;;;18.83;;
41059;SDS011;26811;53.160;8.202;2023-07-24T14:08:56;50.95;;;19.25;;
41059;SDS011;26811;53.160;8.202;2023-07-24T14:13:56;49.92;;;18.45;;
41059;SDS011;26811;53.160;8.202;2023-07-24T14:18:57;60.05;;;19.58;;
41059;SDS011;26811;53.160;8.202;2023-07-24T14:23:57;47.22;;;18.75;;
41059;SDS011;26811;53.160;8.202;2023-07-24T14:28:58;38.85;;;14.40;;
41059;SDS011;26811;53.160;8.202;2023-07-24T14:33:58;21.85;;;8.25;;
41059;SDS011;26811;53.160;8.202;2023-07-24T14:38:59;24.88;;;8.35;;
41059;SDS011;26811;53.160;8.202;2023-07-24T14:44:00;20.47;;;8.20;;
41059;SDS011;26811;53.160;8.202;2023-07-24T14:49:01;22.20;;;8.30;;
41059;SDS011;26811;53.160;8.202;2023-07-24T14:54:01;22.58;;;9.65;;
41059;SDS011;26811;53.160;8.202;2023-07-24T14:59:02;29.48;;;10.52;;
41059;SDS011;26811;53.160;8.202;2023-07-24T15:04:03;31.95;;;10.23;;
41059;SDS011;26811;53.160;8.202;2023-07-24T15:09:03;31.30;;;8.90;;
41059;SDS011;26811;53.160;8.202;2023-07-24T15:14:04;18.77;;;6.63;;
41059;SDS011;26811;53.160;8.202;2023-07-24T15:19:04;15.27;;;5.45;;
41059;SDS011;26811;53.160;8.202;2023-07-24T15:24:05;11.90;;;5.43;;
41059;SDS011;26811;53.160;8.202;2023-07-24T15:29:05;15.32;;;5.70;;
41059;SDS011;26811;53.160;8.202;2023-07-24T15:34:06;34.85;;;8.10;;
41059;SDS011;26811;53.160;8.202;2023-07-24T15:39:10;51.97;;;9.55;;
41059;SDS011;26811;53.160;8.202;2023-07-24T15:44:11;39.05;;;8.18;;
41059;SDS011;26811;53.160;8.202;2023-07-24T15:49:14;33.78;;;8.13;;
41059;SDS011;26811;53.160;8.202;2023-07-24T15:54:14;23.13;;;7.45;;
41059;SDS011;26811;53.160;8.202;2023-07-24T15:59:15;29.63;;;7.88;;
41059;SDS011;26811;53.160;8.202;2023-07-24T16:04:15;29.23;;;8.55;;
41059;SDS011;26811;53.160;8.202;2023-07-24T16:09:16;37.10;;;10.27;;
41059;SDS011;26811;53.160;8.202;2023-07-24T16:14:16;31.10;;;10.48;;
41059;SDS011;26811;53.160;8.202;2023-07-24T16:19:18;37.22;;;11.32;;
41059;SDS011;26811;53.160;8.202;2023-07-24T16:24:19;35.42;;;12.35;;
41059;SDS011;26811;53.160;8.202;2023-07-24T16:29:20;35.17;;;11.40;;
41059;SDS011;26811;53.160;8.202;2023-07-24T16:34:20;36.35;;;12.48;;
41059;SDS011;26811;53.160;8.202;2023-07-24T16:39:21;38.90;;;12.98;;
41059;SDS011;26811;53.160;8.202;2023-07-24T16:44:23;38.30;;;13.63;;
41059;SDS011;26811;53.160;8.202;2023-07-24T16:49:23;50.97;;;13.55;;
41059;SDS011;26811;53.160;8.202;2023-07-24T16:54:24;45.00;;;15.38;;
41059;SDS011;26811;53.160;8.202;2023-07-24T16:59:24;65.22;;;17.42;;
41059;SDS011;26811;53.160;8.202;2023-07-24T17:04:26;53.77;;;17.17;;
41059;SDS011;26811;53.160;8.202;2023-07-24T17:09:26;57.67;;;17.48;;
41059;SDS011;26811;53.160;8.202;2023-07-24T17:14:27;52.72;;;16.55;;
41059;SDS011;26811;53.160;8.202;2023-07-24T17:19:27;52.63;;;15.45;;
41059;SDS011;26811;53.160;8.202;2023-07-24T17:24:29;63.63;;;16.75;;
41059;SDS011;26811;53.160;8.202;2023-07-24T17:29:29;60.30;;;17.38;;
41059;SDS011;26811;53.160;8.202;2023-07-24T17:34:30;59.33;;;16.98;;
41059;SDS011;26811;53.160;8.202;2023-07-24T17:39:30;57.00;;;16.13;;
41059;SDS011;26811;53.160;8.202;2023-07-24T17:44:31;65.10;;;18.60;;
41059;SDS011;26811;53.160;8.202;2023-07-24T17:49:31;61.22;;;18.20;;
41059;SDS011;26811;53.160;8.202;2023-07-24T17:54:32;61.00;;;18.00;;
41059;SDS011;26811;53.160;8.202;2023-07-24T17:59:33;44.45;;;14.90;;
41059;SDS011;26811;53.160;8.202;2023-07-24T18:04:34;58.65;;;15.13;;
41059;SDS011;26811;53.160;8.202;2023-07-24T18:09:34;61.55;;;15.57;;
41059;SDS011;26811;53.160;8.202;2023-07-24T18:14:35;70.63;;;14.27;;
41059;SDS011;26811;53.160;8.202;2023-07-24T18:19:35;50.40;;;12.27;;
41059;SDS011;26811;53.160;8.202;2023-07-24T18:24:36;46.92;;;11.20;;
41059;SDS011;26811;53.160;8.202;2023-07-24T18:29:36;42.50;;;11.63;;
41059;SDS011;26811;53.160;8.202;2023-07-24T18:34:37;40.03;;;11.25;;
41059;SDS011;26811;53.160;8.202;2023-07-24T18:39:38;48.65;;;11.45;;
41059;SDS011;26811;53.160;8.202;2023-07-24T18:44:39;35.65;;;8.48;;
41059;SDS011;26811;53.160;8.202;2023-07-24T18:49:39;43.08;;;8.60;;
41059;SDS011;26811;53.160;8.202;2023-07-24T18:54:40;39.00;;;8.23;;
41059;SDS011;26811;53.160;8.202;2023-07-24T18:59:40;40.45;;;9.20;;
41059;SDS011;26811;53.160;8.202;2023-07-24T19:04:41;41.28;;;8.20;;
41059;SDS011;26811;53.160;8.202;2023-07-24T19:09:41;28.90;;;8.50;;
41059;SDS011;26811;53.160;8.202;2023-07-24T19:14:42;30.75;;;8.43;;
41059;SDS011;26811;53.160;8.202;2023-07-24T19:19:43;44.22;;;7.25;;
41059;SDS011;26811;53.160;8.202;2023-07-24T19:24:44;35.55;;;7.95;;
41059;SDS011;26811;53.160;8.202;2023-07-24T19:29:44;25.02;;;7.80;;
41059;SDS011;26811;53.160;8.202;2023-07-24T19:34:45;27.88;;;7.35;;
41059;SDS011;26811;53.160;8.202;2023-07-24T19:39:45;36.83;;;8.70;;
41059;SDS011;26811;53.160;8.202;2023-07-24T19:44:46;24.27;;;7.57;;
41059;SDS011;26811;53.160;8.202;2023-07-24T19:49:48;34.67;;;8.87;;
41059;SDS011;26811;53.160;8.202;2023-07-24T19:54:50;36.03;;;7.63;;
41059;SDS011;26811;53.160;8.202;2023-07-24T19:59:51;40.85;;;8.77;;
41059;SDS011;26811;53.160;8.202;2023-07-24T20:04:52;27.92;;;8.18;;
41059;SDS011;26811;53.160;8.202;2023-07-24T20:09:52;38.20;;;9.32;;
41059;SDS011;26811;53.160;8.202;2023-07-24T20:14:53;38.10;;;8.23;;
41059;SDS011;26811;53.160;8.202;2023-07-24T20:19:53;31.98;;;8.30;;
41059;SDS011;26811;53.160;8.202;2023-07-24T20:24:54;35.25;;;8.48;;
41059;SDS011;26811;53.160;8.202;2023-07-24T20:29:54;46.08;;;9.40;;
41059;SDS011;26811;53.160;8.202;2023-07-24T20:34:55;47.25;;;10.27;;
41059;SDS011;26811;53.160;8.202;2023-07-24T20:39:55;29.25;;;8.82;;
41059;SDS011;26811;53.160;8.202;2023-07-24T20:44:56;39.72;;;9.13;;
41059;SDS011;26811;53.160;8.202;2023-07-24T20:49:57;28.42;;;9.07;;
41059;SDS011;26811;53.160;8.202;2023-07-24T20:54:58;34.97;;;10.00;;
41059;SDS011;26811;53.160;8.202;2023-07-24T20:59:59;33.42;;;9.90;;
41059;SDS011;26811;53.160;8.202;2023-07-24T21:04:59;29.70;;;9.20;;
41059;SDS011;26811;53.160;8.202;2023-07-24T21:10:00;27.25;;;9.80;;
41059;SDS011;26811;53.160;8.202;2023-07-24T21:15:00;34.92;;;9.77;;
41059;SDS011;26811;53.160;8.202;2023-07-24T21:20:01;36.97;;;9.70;;
41059;SDS011;26811;53.160;8.202;2023-07-24T21:25:03;37.88;;;10.23;;
41059;SDS011;26811;53.160;8.202;2023-07-24T21:30:04;37.88;;;10.60;;
41059;SDS011;26811;53.160;8.202;2023-07-24T21:35:06;36.43;;;9.90;;
41059;SDS011;26811;53.160;8.202;2023-07-24T21:40:07;37.97;;;10.82;;
41059;SDS011;26811;53.160;8.202;2023-07-24T21:45:08;49.33;;;11.38;;
41059;SDS011;26811;53.160;8.202;2023-07-24T21:50:09;64.60;;;12.32;;
41059;SDS011;26811;53.160;8.202;2023-07-24T21:55:10;43.20;;;11.23;;
41059;SDS011;26811;53.160;8.202;2023-07-24T22:00:14;42.35;;;11.52;;
41059;SDS011;26811;53.160;8.202;2023-07-24T22:05:14;45.33;;;11.70;;
41059;SDS011;26811;53.160;8.202;2023-07-24T22:10:33;43.80;;;11.70;;
41059;SDS011;26811;53.160;8.202;2023-07-24T22:15:33;56.95;;;12.40;;
41059;SDS011;26811;53.160;8.202;2023-07-24T22:20:34;40.53;;;11.98;;
41059;SDS011;26811;53.160;8.202;2023-07-24T22:31:32;46.22;;;12.20;;
41059;SDS011;26811;53.160;8.202;2023-07-24T22:36:32;61.55;;;15.00;;
41059;SDS011;26811;53.160;8.202;2023-07-24T22:41:33;41.05;;;11.75;;
41059;SDS011;26811;53.160;8.202;2023-07-24T22:46:33;63.90;;;12.82;;
41059;SDS011;26811;53.160;8.202;2023-07-24T22:51:34;44.35;;;11.40;;
41059;SDS011;26811;53.160;8.202;2023-07-24T22:56:35;45.67;;;12.98;;
41059;SDS011;26811;53.160;8.202;2023-07-24T23:01:35;62.40;;;13.70;;
41059;SDS011;26811;53.160;8.202;2023-07-24T23:06:36;50.08;;;13.70;;
41059;SDS011;26811;53.160;8.202;2023-07-24T23:11:36;57.03;;;13.98;;
41059;SDS011;26811;53.160;8.202;2023-07-24T23:16:37;59.92;;;14.70;;
41059;SDS011;26811;53.160;8.202;2023-07-24T23:21:37;57.50;;;15.00;;
41059;SDS011;26811;53.160;8.202;2023-07-24T23:26:38;67.85;;;15.60;;
41059;SDS011;26811;53.160;8.202;2023-07-24T23:31:38;56.42;;;14.98;;
41059;SDS011;26811;53.160;8.202;2023-07-24T23:36:39;60.85;;;14.55;;
41059;SDS011;26811;53.160;8.202;2023-07-24T23:41:39;65.72;;;15.40;;
41059;SDS011;26811;53.160;8.202;2023-07-24T23:46:40;54.75;;;14.10;;
41059;SDS011;26811;53.160;8.202;2023-07-24T23:51:42;56.95;;;15.93;;
41059;SDS011;26811;53.160;8.202;2023-07-24T23:56:43;57.65;;;13.80;;
